sensor_id;sensor_type;location;lat;lon;timestamp;temperature;humidity
909;DHT22;441;51.192;6.788;2023-11-21T00:02:21;22.70;66.70
909;DHT22;441;51.192;6.788;2023-11-21T00:04:48;22.70;66.80
909;DHT22;441;51.192;6.788;2023-11-21T00:07:15;22.70;66.80
909;DHT22;441;51.192;6.788;2023-11-21T00:09:42;22.70;66.90
909;DHT22;441;51.192;6.788;2023-11-21T00:12:09;22.70;66.90
909;DHT22;441;51.192;6.788;2023-11-21T00:14:38;22.70;66.90
909;DHT22;441;51.192;6.788;2023-11-21T00:17:05;22.70;67.00
909;DHT22;441;51.192;6.788;2023-11-21T00:19:32;22.70;67.10
909;DHT22;441;51.192;6.788;2023-11-21T00:21:58;22.70;67.10
909;DHT22;441;51.192;6.788;2023-11-21T00:24:25;22.70;67.10
909;DHT22;441;51.192;6.788;2023-11-21T00:26:52;22.70;67.20
909;DHT22;441;51.192;6.788;2023-11-21T00:29:19;22.60;67.10
909;DHT22;441;51.192;6.788;2023-11-21T00:31:47;22.60;67.20
909;DHT22;441;51.192;6.788;2023-11-21T00:34:14;22.60;67.20
909;DHT22;441;51.192;6.788;2023-11-21T00:36:41;22.60;67.30
909;DHT22;441;51.192;6.788;2023-11-21T00:39:08;22.60;67.30
909;DHT22;441;51.192;6.788;2023-11-21T00:41:35;22.60;67.50
909;DHT22;441;51.192;6.788;2023-11-21T00:44:03;22.60;67.50
909;DHT22;441;51.192;6.788;2023-11-21T00:46:30;22.60;67.60
909;DHT22;441;51.192;6.788;2023-11-21T00:48:57;22.60;67.70
909;DHT22;441;51.192;6.788;2023-11-21T00:51:24;22.60;67.70
909;DHT22;441;51.192;6.788;2023-11-21T00:53:51;22.50;67.70
909;DHT22;441;51.192;6.788;2023-11-21T00:56:18;22.50;67.70
909;DHT22;441;51.192;6.788;2023-11-21T00:58:45;22.60;67.90
909;DHT22;441;51.192;6.788;2023-11-21T01:01:15;22.50;67.80
909;DHT22;441;51.192;6.788;2023-11-21T01:03:42;22.50;67.70
909;DHT22;441;51.192;6.788;2023-11-21T01:06:11;22.50;67.70
909;DHT22;441;51.192;6.788;2023-11-21T01:08:37;22.50;67.80
909;DHT22;441;51.192;6.788;2023-11-21T01:11:05;22.50;67.80
909;DHT22;441;51.192;6.788;2023-11-21T01:13:33;22.50;67.90
909;DHT22;441;51.192;6.788;2023-11-21T01:16:01;22.50;68.00
909;DHT22;441;51.192;6.788;2023-11-21T01:18:29;22.50;67.90
909;DHT22;441;51.192;6.788;2023-11-21T01:20:56;22.50;67.90
909;DHT22;441;51.192;6.788;2023-11-21T01:23:24;22.50;68.10
909;DHT22;441;51.192;6.788;2023-11-21T01:25:51;22.50;68.10
909;DHT22;441;51.192;6.788;2023-11-21T01:28:18;22.40;68.20
909;DHT22;441;51.192;6.788;2023-11-21T01:30:45;22.50;68.20
909;DHT22;441;51.192;6.788;2023-11-21T01:33:12;22.50;68.20
909;DHT22;441;51.192;6.788;2023-11-21T01:35:41;22.50;68.20
909;DHT22;441;51.192;6.788;2023-11-21T01:38:08;22.50;68.20
909;DHT22;441;51.192;6.788;2023-11-21T01:40:36;22.40;68.10
909;DHT22;441;51.192;6.788;2023-11-21T01:43:03;22.40;68.30
909;DHT22;441;51.192;6.788;2023-11-21T01:45:30;22.40;68.30
909;DHT22;441;51.192;6.788;2023-11-21T01:47:59;22.40;68.40
909;DHT22;441;51.192;6.788;2023-11-21T01:50:27;22.40;68.40
909;DHT22;441;51.192;6.788;2023-11-21T01:52:55;22.40;68.30
909;DHT22;441;51.192;6.788;2023-11-21T01:55:22;22.40;68.30
909;DHT22;441;51.192;6.788;2023-11-21T01:57:50;22.40;68.40
909;DHT22;441;51.192;6.788;2023-11-21T02:00:17;22.40;68.40
909;DHT22;441;51.192;6.788;2023-11-21T02:02:45;22.40;68.40
909;DHT22;441;51.192;6.788;2023-11-21T02:05:12;22.50;68.40
909;DHT22;441;51.192;6.788;2023-11-21T02:07:40;22.40;68.30
909;DHT22;441;51.192;6.788;2023-11-21T02:10:07;22.40;68.40
909;DHT22;441;51.192;6.788;2023-11-21T02:12:34;22.40;68.50
909;DHT22;441;51.192;6.788;2023-11-21T02:15:03;22.40;68.50
909;DHT22;441;51.192;6.788;2023-11-21T02:17:35;22.40;68.50
909;DHT22;441;51.192;6.788;2023-11-21T02:20:02;22.40;68.60
909;DHT22;441;51.192;6.788;2023-11-21T02:22:34;22.40;68.60
909;DHT22;441;51.192;6.788;2023-11-21T02:25:04;22.40;68.70
909;DHT22;441;51.192;6.788;2023-11-21T02:27:33;22.40;68.60
909;DHT22;441;51.192;6.788;2023-11-21T02:30:00;22.40;68.60
909;DHT22;441;51.192;6.788;2023-11-21T02:32:27;22.40;68.60
909;DHT22;441;51.192;6.788;2023-11-21T02:34:54;22.40;68.60
909;DHT22;441;51.192;6.788;2023-11-21T02:37:21;22.40;68.60
909;DHT22;441;51.192;6.788;2023-11-21T02:39:48;22.40;68.60
909;DHT22;441;51.192;6.788;2023-11-21T02:42:16;22.40;68.60
909;DHT22;441;51.192;6.788;2023-11-21T02:44:43;22.40;68.70
909;DHT22;441;51.192;6.788;2023-11-21T02:47:10;22.30;68.60
909;DHT22;441;51.192;6.788;2023-11-21T02:49:37;22.30;68.70
909;DHT22;441;51.192;6.788;2023-11-21T02:52:04;22.30;68.70
909;DHT22;441;51.192;6.788;2023-11-21T02:54:31;22.30;68.70
909;DHT22;441;51.192;6.788;2023-11-21T02:57:01;22.30;68.60
909;DHT22;441;51.192;6.788;2023-11-21T02:59:30;22.30;68.70
909;DHT22;441;51.192;6.788;2023-11-21T03:01:57;22.30;68.70
909;DHT22;441;51.192;6.788;2023-11-21T03:04:24;22.30;68.70
909;DHT22;441;51.192;6.788;2023-11-21T03:06:51;22.30;68.80
909;DHT22;441;51.192;6.788;2023-11-21T03:09:18;22.30;68.80
909;DHT22;441;51.192;6.788;2023-11-21T03:11:45;22.30;68.70
909;DHT22;441;51.192;6.788;2023-11-21T03:14:12;22.30;68.70
909;DHT22;441;51.192;6.788;2023-11-21T03:16:40;22.30;68.70
909;DHT22;441;51.192;6.788;2023-11-21T03:19:07;22.30;68.70
909;DHT22;441;51.192;6.788;2023-11-21T03:21:34;22.30;68.70
909;DHT22;441;51.192;6.788;2023-11-21T03:24:01;22.30;68.80
909;DHT22;441;51.192;6.788;2023-11-21T03:26:28;22.30;68.80
909;DHT22;441;51.192;6.788;2023-11-21T03:28:56;22.30;68.80
909;DHT22;441;51.192;6.788;2023-11-21T03:31:22;22.30;68.70
909;DHT22;441;51.192;6.788;2023-11-21T03:33:51;22.30;68.80
909;DHT22;441;51.192;6.788;2023-11-21T03:36:19;22.30;68.80
909;DHT22;441;51.192;6.788;2023-11-21T03:38:47;22.30;68.80
909;DHT22;441;51.192;6.788;2023-11-21T03:41:14;22.30;68.80
909;DHT22;441;51.192;6.788;2023-11-21T03:43:41;22.30;68.80
909;DHT22;441;51.192;6.788;2023-11-21T03:46:08;22.30;68.80
909;DHT22;441;51.192;6.788;2023-11-21T03:48:35;22.20;68.70
909;DHT22;441;51.192;6.788;2023-11-21T03:51:04;22.20;68.70
909;DHT22;441;51.192;6.788;2023-11-21T03:53:31;22.30;68.80
909;DHT22;441;51.192;6.788;2023-11-21T03:55:58;22.20;68.80
909;DHT22;441;51.192;6.788;2023-11-21T03:58:24;22.20;68.90
909;DHT22;441;51.192;6.788;2023-11-21T04:00:52;22.20;68.90
909;DHT22;441;51.192;6.788;2023-11-21T04:03:18;22.20;68.90
909;DHT22;441;51.192;6.788;2023-11-21T04:05:46;22.20;68.90
909;DHT22;441;51.192;6.788;2023-11-21T04:08:14;22.20;69.00
909;DHT22;441;51.192;6.788;2023-11-21T04:10:41;22.20;68.90
909;DHT22;441;51.192;6.788;2023-11-21T04:13:08;22.20;69.00
909;DHT22;441;51.192;6.788;2023-11-21T04:15:36;22.20;69.00
909;DHT22;441;51.192;6.788;2023-11-21T04:18:03;22.20;68.90
909;DHT22;441;51.192;6.788;2023-11-21T04:20:29;22.20;68.90
909;DHT22;441;51.192;6.788;2023-11-21T04:22:56;22.20;68.90
909;DHT22;441;51.192;6.788;2023-11-21T04:25:25;22.20;68.90
909;DHT22;441;51.192;6.788;2023-11-21T04:27:53;22.20;68.90
909;DHT22;441;51.192;6.788;2023-11-21T04:30:19;22.20;68.90
909;DHT22;441;51.192;6.788;2023-11-21T04:32:46;22.20;69.00
909;DHT22;441;51.192;6.788;2023-11-21T04:35:13;22.20;69.00
909;DHT22;441;51.192;6.788;2023-11-21T04:37:40;22.20;69.00
909;DHT22;441;51.192;6.788;2023-11-21T04:40:08;22.20;68.90
909;DHT22;441;51.192;6.788;2023-11-21T04:42:37;22.20;69.00
909;DHT22;441;51.192;6.788;2023-11-21T04:45:05;22.20;69.00
909;DHT22;441;51.192;6.788;2023-11-21T04:47:34;22.20;69.00
909;DHT22;441;51.192;6.788;2023-11-21T04:50:02;22.20;69.80
909;DHT22;441;51.192;6.788;2023-11-21T04:52:29;22.10;69.00
909;DHT22;441;51.192;6.788;2023-11-21T04:54:56;22.20;69.10
909;DHT22;441;51.192;6.788;2023-11-21T04:57:24;22.20;69.00
909;DHT22;441;51.192;6.788;2023-11-21T04:59:52;22.20;69.30
909;DHT22;441;51.192;6.788;2023-11-21T05:02:19;22.20;69.40
909;DHT22;441;51.192;6.788;2023-11-21T05:04:46;22.20;69.40
909;DHT22;441;51.192;6.788;2023-11-21T05:07:13;22.20;69.60
909;DHT22;441;51.192;6.788;2023-11-21T05:09:42;22.20;69.70
909;DHT22;441;51.192;6.788;2023-11-21T05:12:09;22.20;69.70
909;DHT22;441;51.192;6.788;2023-11-21T05:14:37;22.20;69.70
909;DHT22;441;51.192;6.788;2023-11-21T05:17:05;22.20;69.70
909;DHT22;441;51.192;6.788;2023-11-21T05:19:33;22.20;70.10
909;DHT22;441;51.192;6.788;2023-11-21T05:22:01;22.20;70.30
909;DHT22;441;51.192;6.788;2023-11-21T05:24:28;22.20;70.20
909;DHT22;441;51.192;6.788;2023-11-21T05:26:55;22.20;70.30
909;DHT22;441;51.192;6.788;2023-11-21T05:29:23;22.10;70.20
909;DHT22;441;51.192;6.788;2023-11-21T05:31:51;22.20;70.20
909;DHT22;441;51.192;6.788;2023-11-21T05:34:20;22.20;70.10
909;DHT22;441;51.192;6.788;2023-11-21T05:36:49;22.20;69.80
909;DHT22;441;51.192;6.788;2023-11-21T05:39:16;22.20;70.10
909;DHT22;441;51.192;6.788;2023-11-21T05:41:44;22.20;70.90
909;DHT22;441;51.192;6.788;2023-11-21T05:44:11;22.20;71.50
909;DHT22;441;51.192;6.788;2023-11-21T05:46:40;22.30;72.20
909;DHT22;441;51.192;6.788;2023-11-21T05:49:08;22.20;73.20
909;DHT22;441;51.192;6.788;2023-11-21T05:51:37;22.20;76.60
909;DHT22;441;51.192;6.788;2023-11-21T05:54:04;22.20;77.00
909;DHT22;441;51.192;6.788;2023-11-21T05:56:31;22.20;77.00
909;DHT22;441;51.192;6.788;2023-11-21T05:58:58;22.30;75.90
909;DHT22;441;51.192;6.788;2023-11-21T06:01:25;22.30;75.40
909;DHT22;441;51.192;6.788;2023-11-21T06:03:53;22.30;74.90
909;DHT22;441;51.192;6.788;2023-11-21T06:06:21;22.30;74.50
909;DHT22;441;51.192;6.788;2023-11-21T06:08:51;22.30;74.30
909;DHT22;441;51.192;6.788;2023-11-21T06:11:18;22.30;74.10
909;DHT22;441;51.192;6.788;2023-11-21T06:13:45;22.30;73.70
909;DHT22;441;51.192;6.788;2023-11-21T06:16:13;22.30;73.60
909;DHT22;441;51.192;6.788;2023-11-21T06:18:42;22.30;73.40
909;DHT22;441;51.192;6.788;2023-11-21T06:21:10;22.30;73.30
909;DHT22;441;51.192;6.788;2023-11-21T06:23:36;22.30;73.20
909;DHT22;441;51.192;6.788;2023-11-21T06:26:05;22.30;72.90
909;DHT22;441;51.192;6.788;2023-11-21T06:28:32;22.30;72.80
909;DHT22;441;51.192;6.788;2023-11-21T06:30:59;22.30;72.60
909;DHT22;441;51.192;6.788;2023-11-21T06:33:30;22.40;72.50
909;DHT22;441;51.192;6.788;2023-11-21T06:35:57;22.30;72.20
909;DHT22;441;51.192;6.788;2023-11-21T06:38:24;22.30;72.10
909;DHT22;441;51.192;6.788;2023-11-21T06:40:53;22.30;72.10
909;DHT22;441;51.192;6.788;2023-11-21T06:43:22;22.30;71.80
909;DHT22;441;51.192;6.788;2023-11-21T06:45:49;22.30;71.70
909;DHT22;441;51.192;6.788;2023-11-21T06:48:16;22.30;71.50
909;DHT22;441;51.192;6.788;2023-11-21T06:50:43;22.30;71.50
909;DHT22;441;51.192;6.788;2023-11-21T06:53:10;22.30;71.30
909;DHT22;441;51.192;6.788;2023-11-21T06:55:37;22.40;71.30
909;DHT22;441;51.192;6.788;2023-11-21T06:58:03;22.40;71.20
909;DHT22;441;51.192;6.788;2023-11-21T07:00:32;22.40;71.00
909;DHT22;441;51.192;6.788;2023-11-21T07:02:59;22.40;71.00
909;DHT22;441;51.192;6.788;2023-11-21T07:05:26;22.40;70.80
909;DHT22;441;51.192;6.788;2023-11-21T07:07:52;22.40;70.80
909;DHT22;441;51.192;6.788;2023-11-21T07:10:19;22.40;70.70
909;DHT22;441;51.192;6.788;2023-11-21T07:12:46;22.40;70.60
909;DHT22;441;51.192;6.788;2023-11-21T07:15:13;22.40;70.50
909;DHT22;441;51.192;6.788;2023-11-21T07:17:42;22.40;70.40
909;DHT22;441;51.192;6.788;2023-11-21T07:20:10;22.40;70.30
909;DHT22;441;51.192;6.788;2023-11-21T07:22:37;22.40;70.20
909;DHT22;441;51.192;6.788;2023-11-21T07:25:05;22.40;70.10
909;DHT22;441;51.192;6.788;2023-11-21T07:27:32;22.40;70.10
909;DHT22;441;51.192;6.788;2023-11-21T07:30:01;22.40;70.00
909;DHT22;441;51.192;6.788;2023-11-21T07:32:30;22.40;69.90
909;DHT22;441;51.192;6.788;2023-11-21T07:34:58;22.40;69.80
909;DHT22;441;51.192;6.788;2023-11-21T07:37:26;22.40;69.80
909;DHT22;441;51.192;6.788;2023-11-21T07:39:54;22.40;69.70
909;DHT22;441;51.192;6.788;2023-11-21T07:42:22;22.40;69.60
909;DHT22;441;51.192;6.788;2023-11-21T07:44:49;22.40;69.60
909;DHT22;441;51.192;6.788;2023-11-21T07:47:17;22.40;69.50
909;DHT22;441;51.192;6.788;2023-11-21T07:49:44;22.40;69.40
909;DHT22;441;51.192;6.788;2023-11-21T07:52:13;22.40;69.30
909;DHT22;441;51.192;6.788;2023-11-21T07:54:41;22.40;69.30
909;DHT22;441;51.192;6.788;2023-11-21T07:57:08;22.40;69.20
909;DHT22;441;51.192;6.788;2023-11-21T07:59:38;22.40;69.20
909;DHT22;441;51.192;6.788;2023-11-21T08:02:06;22.40;69.10
909;DHT22;441;51.192;6.788;2023-11-21T08:04:33;22.40;69.00
909;DHT22;441;51.192;6.788;2023-11-21T08:07:01;22.40;69.00
909;DHT22;441;51.192;6.788;2023-11-21T08:09:30;22.40;68.90
909;DHT22;441;51.192;6.788;2023-11-21T08:11:58;22.40;68.90
909;DHT22;441;51.192;6.788;2023-11-21T08:14:26;22.40;68.90
909;DHT22;441;51.192;6.788;2023-11-21T08:16:53;22.40;68.80
909;DHT22;441;51.192;6.788;2023-11-21T08:19:23;22.40;68.70
909;DHT22;441;51.192;6.788;2023-11-21T08:21:50;22.40;68.70
909;DHT22;441;51.192;6.788;2023-11-21T08:24:20;22.40;68.60
909;DHT22;441;51.192;6.788;2023-11-21T08:26:48;22.40;68.60
909;DHT22;441;51.192;6.788;2023-11-21T08:29:16;22.40;68.60
909;DHT22;441;51.192;6.788;2023-11-21T08:31:43;22.40;68.60
909;DHT22;441;51.192;6.788;2023-11-21T08:34:12;22.40;68.50
909;DHT22;441;51.192;6.788;2023-11-21T08:36:41;22.40;68.40
909;DHT22;441;51.192;6.788;2023-11-21T08:39:08;22.40;68.40
909;DHT22;441;51.192;6.788;2023-11-21T08:41:36;22.40;68.40
909;DHT22;441;51.192;6.788;2023-11-21T08:44:05;22.40;68.40
909;DHT22;441;51.192;6.788;2023-11-21T08:46:33;22.40;68.30
909;DHT22;441;51.192;6.788;2023-11-21T08:49:02;22.40;68.20
909;DHT22;441;51.192;6.788;2023-11-21T08:51:29;22.40;68.20
909;DHT22;441;51.192;6.788;2023-11-21T08:53:57;22.40;68.20
909;DHT22;441;51.192;6.788;2023-11-21T08:56:26;22.40;68.20
909;DHT22;441;51.192;6.788;2023-11-21T08:58:53;22.40;68.90
909;DHT22;441;51.192;6.788;2023-11-21T09:01:21;22.40;68.00
909;DHT22;441;51.192;6.788;2023-11-21T09:03:48;22.40;68.00
909;DHT22;441;51.192;6.788;2023-11-21T09:06:16;22.40;67.90
909;DHT22;441;51.192;6.788;2023-11-21T09:08:43;22.40;68.00
909;DHT22;441;51.192;6.788;2023-11-21T09:11:10;22.40;67.90
909;DHT22;441;51.192;6.788;2023-11-21T09:13:36;22.40;67.80
909;DHT22;441;51.192;6.788;2023-11-21T09:16:04;22.40;67.90
909;DHT22;441;51.192;6.788;2023-11-21T09:18:32;22.40;67.80
909;DHT22;441;51.192;6.788;2023-11-21T09:20:59;22.40;67.80
909;DHT22;441;51.192;6.788;2023-11-21T09:23:26;22.40;67.70
909;DHT22;441;51.192;6.788;2023-11-21T09:25:53;22.40;67.70
909;DHT22;441;51.192;6.788;2023-11-21T09:28:22;22.40;67.70
909;DHT22;441;51.192;6.788;2023-11-21T09:30:49;22.40;67.60
909;DHT22;441;51.192;6.788;2023-11-21T09:33:16;22.40;67.50
909;DHT22;441;51.192;6.788;2023-11-21T09:35:44;22.40;67.50
909;DHT22;441;51.192;6.788;2023-11-21T09:38:11;22.40;67.50
909;DHT22;441;51.192;6.788;2023-11-21T09:40:38;22.40;67.50
909;DHT22;441;51.192;6.788;2023-11-21T09:43:07;22.40;67.50
909;DHT22;441;51.192;6.788;2023-11-21T09:45:44;22.40;67.50
909;DHT22;441;51.192;6.788;2023-11-21T09:48:13;22.40;67.40
909;DHT22;441;51.192;6.788;2023-11-21T09:50:43;22.40;67.40
909;DHT22;441;51.192;6.788;2023-11-21T09:53:14;22.40;67.40
909;DHT22;441;51.192;6.788;2023-11-21T09:55:46;22.40;67.40
909;DHT22;441;51.192;6.788;2023-11-21T09:58:14;22.40;67.40
909;DHT22;441;51.192;6.788;2023-11-21T10:00:42;22.40;67.40
909;DHT22;441;51.192;6.788;2023-11-21T10:03:10;22.40;67.30
909;DHT22;441;51.192;6.788;2023-11-21T10:05:37;22.40;67.30
909;DHT22;441;51.192;6.788;2023-11-21T10:08:08;22.40;67.30
909;DHT22;441;51.192;6.788;2023-11-21T10:10:36;22.40;67.30
909;DHT22;441;51.192;6.788;2023-11-21T10:13:05;22.40;67.20
909;DHT22;441;51.192;6.788;2023-11-21T10:15:33;22.40;67.30
909;DHT22;441;51.192;6.788;2023-11-21T10:18:03;22.40;67.20
909;DHT22;441;51.192;6.788;2023-11-21T10:20:32;22.40;67.20
909;DHT22;441;51.192;6.788;2023-11-21T10:23:00;22.40;67.20
909;DHT22;441;51.192;6.788;2023-11-21T10:25:30;22.40;67.10
909;DHT22;441;51.192;6.788;2023-11-21T10:27:59;22.40;67.20
909;DHT22;441;51.192;6.788;2023-11-21T10:30:32;22.40;67.20
909;DHT22;441;51.192;6.788;2023-11-21T10:33:03;22.40;67.20
909;DHT22;441;51.192;6.788;2023-11-21T10:35:54;22.40;67.20
909;DHT22;441;51.192;6.788;2023-11-21T10:38:21;22.40;67.20
909;DHT22;441;51.192;6.788;2023-11-21T10:40:51;22.40;67.20
909;DHT22;441;51.192;6.788;2023-11-21T10:43:20;22.40;67.10
909;DHT22;441;51.192;6.788;2023-11-21T10:45:51;22.40;67.10
909;DHT22;441;51.192;6.788;2023-11-21T10:48:17;22.40;67.20
909;DHT22;441;51.192;6.788;2023-11-21T10:50:46;22.40;67.10
909;DHT22;441;51.192;6.788;2023-11-21T10:53:13;22.40;67.00
909;DHT22;441;51.192;6.788;2023-11-21T10:55:39;22.40;67.10
909;DHT22;441;51.192;6.788;2023-11-21T10:58:08;22.40;67.10
909;DHT22;441;51.192;6.788;2023-11-21T11:00:37;22.40;67.10
909;DHT22;441;51.192;6.788;2023-11-21T11:03:06;22.40;67.00
909;DHT22;441;51.192;6.788;2023-11-21T11:05:40;22.40;67.00
909;DHT22;441;51.192;6.788;2023-11-21T11:08:12;22.40;67.00
909;DHT22;441;51.192;6.788;2023-11-21T11:10:44;22.40;67.00
909;DHT22;441;51.192;6.788;2023-11-21T11:13:13;22.40;67.00
909;DHT22;441;51.192;6.788;2023-11-21T11:15:41;22.40;66.90
909;DHT22;441;51.192;6.788;2023-11-21T11:18:10;22.40;66.90
909;DHT22;441;51.192;6.788;2023-11-21T11:20:37;22.40;66.90
909;DHT22;441;51.192;6.788;2023-11-21T11:23:19;22.40;67.60
909;DHT22;441;51.192;6.788;2023-11-21T11:26:02;22.40;66.90
909;DHT22;441;51.192;6.788;2023-11-21T11:28:38;22.40;66.80
909;DHT22;441;51.192;6.788;2023-11-21T11:31:18;22.40;66.80
909;DHT22;441;51.192;6.788;2023-11-21T11:33:55;22.40;66.80
909;DHT22;441;51.192;6.788;2023-11-21T11:36:29;22.40;66.80
909;DHT22;441;51.192;6.788;2023-11-21T11:38:58;22.40;66.80
909;DHT22;441;51.192;6.788;2023-11-21T11:41:29;22.40;66.80
909;DHT22;441;51.192;6.788;2023-11-21T11:44:00;22.40;66.80
909;DHT22;441;51.192;6.788;2023-11-21T11:46:41;22.40;66.70
909;DHT22;441;51.192;6.788;2023-11-21T11:49:08;22.40;66.80
909;DHT22;441;51.192;6.788;2023-11-21T11:51:35;22.40;66.80
909;DHT22;441;51.192;6.788;2023-11-21T11:54:02;22.40;66.70
909;DHT22;441;51.192;6.788;2023-11-21T11:56:33;22.40;66.70
909;DHT22;441;51.192;6.788;2023-11-21T11:59:03;22.40;66.70
909;DHT22;441;51.192;6.788;2023-11-21T12:01:33;22.40;66.70
909;DHT22;441;51.192;6.788;2023-11-21T12:04:25;22.40;66.70
909;DHT22;441;51.192;6.788;2023-11-21T12:07:01;22.40;66.70
909;DHT22;441;51.192;6.788;2023-11-21T12:09:32;22.40;66.60
909;DHT22;441;51.192;6.788;2023-11-21T12:11:59;22.40;66.70
909;DHT22;441;51.192;6.788;2023-11-21T12:14:28;22.40;66.70
909;DHT22;441;51.192;6.788;2023-11-21T12:16:55;22.40;66.60
909;DHT22;441;51.192;6.788;2023-11-21T12:19:22;22.40;66.60
909;DHT22;441;51.192;6.788;2023-11-21T12:21:49;22.40;66.60
909;DHT22;441;51.192;6.788;2023-11-21T12:24:17;22.40;66.50
909;DHT22;441;51.192;6.788;2023-11-21T12:26:44;22.40;66.50
909;DHT22;441;51.192;6.788;2023-11-21T12:29:11;22.40;66.50
909;DHT22;441;51.192;6.788;2023-11-21T12:31:40;22.40;66.40
909;DHT22;441;51.192;6.788;2023-11-21T12:34:07;22.40;66.40
909;DHT22;441;51.192;6.788;2023-11-21T12:36:37;22.40;66.40
909;DHT22;441;51.192;6.788;2023-11-21T12:39:04;22.40;66.40
909;DHT22;441;51.192;6.788;2023-11-21T12:41:31;22.40;66.40
909;DHT22;441;51.192;6.788;2023-11-21T12:43:58;22.40;66.40
909;DHT22;441;51.192;6.788;2023-11-21T12:46:25;22.40;66.40
909;DHT22;441;51.192;6.788;2023-11-21T12:48:57;22.40;66.40
909;DHT22;441;51.192;6.788;2023-11-21T12:51:24;22.40;66.40
909;DHT22;441;51.192;6.788;2023-11-21T12:53:52;22.40;66.30
909;DHT22;441;51.192;6.788;2023-11-21T12:56:21;22.40;66.30
909;DHT22;441;51.192;6.788;2023-11-21T12:58:49;22.40;66.30
909;DHT22;441;51.192;6.788;2023-11-21T13:01:17;22.40;66.30
909;DHT22;441;51.192;6.788;2023-11-21T13:03:48;22.40;66.20
909;DHT22;441;51.192;6.788;2023-11-21T13:06:19;22.40;66.20
909;DHT22;441;51.192;6.788;2023-11-21T13:08:50;22.40;66.20
909;DHT22;441;51.192;6.788;2023-11-21T13:11:17;22.40;66.20
909;DHT22;441;51.192;6.788;2023-11-21T13:13:44;22.40;66.10
909;DHT22;441;51.192;6.788;2023-11-21T13:16:11;22.40;66.10
909;DHT22;441;51.192;6.788;2023-11-21T13:18:38;22.40;66.20
909;DHT22;441;51.192;6.788;2023-11-21T13:21:08;22.40;66.10
909;DHT22;441;51.192;6.788;2023-11-21T13:23:41;22.40;66.10
909;DHT22;441;51.192;6.788;2023-11-21T13:26:08;22.40;66.00
909;DHT22;441;51.192;6.788;2023-11-21T13:28:35;22.40;66.10
909;DHT22;441;51.192;6.788;2023-11-21T13:31:04;22.40;66.10
909;DHT22;441;51.192;6.788;2023-11-21T13:33:46;22.40;66.10
909;DHT22;441;51.192;6.788;2023-11-21T13:36:17;22.40;66.00
909;DHT22;441;51.192;6.788;2023-11-21T13:38:49;22.40;66.00
909;DHT22;441;51.192;6.788;2023-11-21T13:41:18;22.40;66.10
909;DHT22;441;51.192;6.788;2023-11-21T13:43:45;22.40;66.10
909;DHT22;441;51.192;6.788;2023-11-21T13:46:19;22.40;66.10
909;DHT22;441;51.192;6.788;2023-11-21T13:48:48;22.40;66.20
909;DHT22;441;51.192;6.788;2023-11-21T13:51:21;22.40;66.20
909;DHT22;441;51.192;6.788;2023-11-21T13:53:58;22.40;66.20
909;DHT22;441;51.192;6.788;2023-11-21T13:56:26;22.40;66.20
909;DHT22;441;51.192;6.788;2023-11-21T13:58:54;22.40;66.20
909;DHT22;441;51.192;6.788;2023-11-21T14:01:22;22.40;66.20
909;DHT22;441;51.192;6.788;2023-11-21T14:04:08;22.40;66.20
909;DHT22;441;51.192;6.788;2023-11-21T14:06:45;22.40;66.20
909;DHT22;441;51.192;6.788;2023-11-21T14:09:15;22.40;66.20
909;DHT22;441;51.192;6.788;2023-11-21T14:11:50;22.40;66.20
909;DHT22;441;51.192;6.788;2023-11-21T14:14:18;22.40;66.20
909;DHT22;441;51.192;6.788;2023-11-21T14:16:45;22.40;66.10
909;DHT22;441;51.192;6.788;2023-11-21T14:19:12;22.40;66.10
909;DHT22;441;51.192;6.788;2023-11-21T14:21:42;22.40;66.10
909;DHT22;441;51.192;6.788;2023-11-21T14:24:10;22.40;66.20
909;DHT22;441;51.192;6.788;2023-11-21T14:26:40;22.40;66.10
909;DHT22;441;51.192;6.788;2023-11-21T14:29:08;22.40;66.10
909;DHT22;441;51.192;6.788;2023-11-21T14:31:38;22.40;66.00
909;DHT22;441;51.192;6.788;2023-11-21T14:34:05;22.40;66.00
909;DHT22;441;51.192;6.788;2023-11-21T14:36:32;22.40;66.00
909;DHT22;441;51.192;6.788;2023-11-21T14:38:59;22.40;66.00
909;DHT22;441;51.192;6.788;2023-11-21T14:41:26;22.40;66.00
909;DHT22;441;51.192;6.788;2023-11-21T14:43:55;22.40;66.00
909;DHT22;441;51.192;6.788;2023-11-21T14:46:23;22.40;66.00
909;DHT22;441;51.192;6.788;2023-11-21T14:48:50;22.40;65.90
909;DHT22;441;51.192;6.788;2023-11-21T14:51:25;22.40;65.90
909;DHT22;441;51.192;6.788;2023-11-21T14:53:53;22.40;66.00
909;DHT22;441;51.192;6.788;2023-11-21T14:56:19;22.40;65.90
909;DHT22;441;51.192;6.788;2023-11-21T14:58:52;22.40;66.00
909;DHT22;441;51.192;6.788;2023-11-21T15:01:20;22.40;66.00
909;DHT22;441;51.192;6.788;2023-11-21T15:04:00;22.40;66.00
909;DHT22;441;51.192;6.788;2023-11-21T15:06:26;22.40;65.90
909;DHT22;441;51.192;6.788;2023-11-21T15:08:56;22.40;65.90
909;DHT22;441;51.192;6.788;2023-11-21T15:11:46;22.40;66.00
909;DHT22;441;51.192;6.788;2023-11-21T15:14:14;22.40;66.00
909;DHT22;441;51.192;6.788;2023-11-21T15:16:48;22.40;66.00
909;DHT22;441;51.192;6.788;2023-11-21T15:19:18;22.40;66.00
909;DHT22;441;51.192;6.788;2023-11-21T15:21:52;22.40;66.10
909;DHT22;441;51.192;6.788;2023-11-21T15:24:19;22.40;66.10
909;DHT22;441;51.192;6.788;2023-11-21T15:26:46;22.40;66.10
909;DHT22;441;51.192;6.788;2023-11-21T15:29:12;22.40;66.10
909;DHT22;441;51.192;6.788;2023-11-21T15:31:40;22.40;66.10
909;DHT22;441;51.192;6.788;2023-11-21T15:34:12;22.40;66.10
909;DHT22;441;51.192;6.788;2023-11-21T15:36:39;22.40;66.00
909;DHT22;441;51.192;6.788;2023-11-21T15:39:06;22.40;66.10
909;DHT22;441;51.192;6.788;2023-11-21T15:41:35;22.40;66.10
909;DHT22;441;51.192;6.788;2023-11-21T15:44:04;22.40;66.10
909;DHT22;441;51.192;6.788;2023-11-21T15:46:33;22.40;66.10
909;DHT22;441;51.192;6.788;2023-11-21T15:49:01;22.40;66.10
909;DHT22;441;51.192;6.788;2023-11-21T15:51:37;22.40;66.80
909;DHT22;441;51.192;6.788;2023-11-21T15:54:04;22.40;68.10
909;DHT22;441;51.192;6.788;2023-11-21T15:56:31;22.50;67.30
909;DHT22;441;51.192;6.788;2023-11-21T15:59:00;22.60;67.70
909;DHT22;441;51.192;6.788;2023-11-21T16:01:27;22.60;66.80
909;DHT22;441;51.192;6.788;2023-11-21T16:03:54;22.60;66.70
909;DHT22;441;51.192;6.788;2023-11-21T16:06:21;22.70;67.50
909;DHT22;441;51.192;6.788;2023-11-21T16:08:49;22.70;67.30
909;DHT22;441;51.192;6.788;2023-11-21T16:11:16;22.70;67.10
909;DHT22;441;51.192;6.788;2023-11-21T16:13:42;22.70;67.00
909;DHT22;441;51.192;6.788;2023-11-21T16:16:11;22.70;67.10
909;DHT22;441;51.192;6.788;2023-11-21T16:18:38;22.70;66.90
909;DHT22;441;51.192;6.788;2023-11-21T16:21:05;22.70;66.80
909;DHT22;441;51.192;6.788;2023-11-21T16:23:34;22.70;66.60
909;DHT22;441;51.192;6.788;2023-11-21T16:26:04;22.80;66.70
909;DHT22;441;51.192;6.788;2023-11-21T16:28:31;22.70;66.40
909;DHT22;441;51.192;6.788;2023-11-21T16:30:58;22.80;66.80
909;DHT22;441;51.192;6.788;2023-11-21T16:33:25;22.80;66.50
909;DHT22;441;51.192;6.788;2023-11-21T16:35:51;22.80;66.40
909;DHT22;441;51.192;6.788;2023-11-21T16:38:18;22.80;66.10
909;DHT22;441;51.192;6.788;2023-11-21T16:40:45;22.80;65.90
909;DHT22;441;51.192;6.788;2023-11-21T16:43:13;22.90;65.90